createdAt,value
2023-05-17T00:01:05.466Z,1.77
2023-05-17T00:03:34.577Z,1.50
2023-05-17T00:06:02.450Z,1.70
2023-05-17T00:08:30.202Z,1.60
2023-05-17T00:10:57.979Z,1.73
2023-05-17T00:13:25.791Z,2.30
2023-05-17T00:15:53.502Z,2.13
2023-05-17T00:18:21.318Z,2.37
2023-05-17T00:20:50.448Z,2.40
2023-05-17T00:23:18.164Z,2.30
2023-05-17T00:25:46.684Z,2.30
2023-05-17T00:28:14.437Z,2.07
2023-05-17T00:30:42.226Z,2.43
2023-05-17T00:33:10.079Z,2.50
2023-05-17T00:35:37.865Z,1.80
2023-05-17T00:38:07.385Z,2.90
2023-05-17T00:40:35.158Z,2.23
2023-05-17T00:43:03.137Z,2.43
2023-05-17T00:45:31.014Z,3.13
2023-05-17T00:47:59.015Z,2.57
2023-05-17T00:50:26.963Z,2.80
2023-05-17T00:52:55.121Z,2.30
2023-05-17T00:55:24.217Z,2.97
2023-05-17T00:57:51.950Z,3.13
2023-05-17T01:00:20.026Z,3.00
2023-05-17T01:02:48.738Z,3.10
2023-05-17T01:05:16.868Z,2.43
2023-05-17T01:07:44.657Z,3.30
2023-05-17T01:10:12.758Z,2.97
2023-05-17T01:12:56.266Z,2.87
2023-05-17T01:15:27.028Z,3.00
2023-05-17T01:18:01.909Z,2.87
2023-05-17T01:20:32.686Z,3.10
2023-05-17T01:23:17.348Z,3.20
2023-05-17T01:25:55.943Z,3.40
2023-05-17T01:28:27.409Z,2.63
2023-05-17T01:30:57.323Z,3.20
2023-05-17T01:33:25.975Z,3.40
2023-05-17T01:35:53.870Z,3.00
2023-05-17T01:38:21.745Z,2.70
2023-05-17T01:40:53.254Z,2.90
2023-05-17T01:43:27.484Z,2.60
2023-05-17T01:46:02.893Z,3.40
2023-05-17T01:48:37.506Z,3.07
2023-05-17T01:51:05.871Z,3.00
2023-05-17T01:53:39.190Z,2.50
2023-05-17T01:56:10.657Z,2.97
2023-05-17T01:58:46.196Z,3.00
2023-05-17T02:01:17.088Z,3.30
2023-05-17T02:03:45.037Z,2.80
2023-05-17T02:06:12.779Z,3.70
2023-05-17T02:08:40.565Z,2.80
2023-05-17T02:11:08.454Z,3.50
2023-05-17T02:13:36.299Z,2.90
2023-05-17T02:16:06.640Z,3.53
2023-05-17T02:18:35.704Z,2.90
2023-05-17T02:21:03.771Z,3.07
2023-05-17T02:23:31.557Z,3.53
2023-05-17T02:25:59.369Z,4.00
2023-05-17T02:28:28.532Z,3.53
2023-05-17T02:30:56.567Z,3.50
2023-05-17T02:33:25.782Z,3.50
2023-05-17T02:35:53.618Z,3.33
2023-05-17T02:38:21.748Z,4.10
2023-05-17T02:40:49.513Z,3.17
2023-05-17T02:43:17.282Z,3.20
2023-05-17T02:45:45.485Z,3.40
2023-05-17T02:48:13.264Z,3.20
2023-05-17T02:50:45.172Z,3.87
2023-05-17T02:53:12.977Z,3.83
2023-05-17T02:55:40.728Z,3.63
2023-05-17T02:58:08.466Z,3.80
2023-05-17T03:00:36.192Z,4.03
2023-05-17T03:03:04.120Z,3.50
2023-05-17T03:05:31.995Z,3.70
2023-05-17T03:08:01.464Z,3.50
2023-05-17T03:10:29.243Z,3.43
2023-05-17T03:12:57.019Z,3.67
2023-05-17T03:15:26.805Z,3.33
2023-05-17T03:17:54.856Z,4.00
2023-05-17T03:20:22.768Z,3.80
2023-05-17T03:22:50.623Z,3.53
2023-05-17T03:25:19.972Z,3.87
2023-05-17T03:27:47.822Z,4.07
2023-05-17T03:30:15.873Z,4.00
2023-05-17T03:32:43.748Z,3.63
2023-05-17T03:35:11.670Z,3.50
2023-05-17T03:37:39.418Z,3.70
2023-05-17T03:40:08.272Z,3.97
2023-05-17T03:42:43.702Z,4.10
2023-05-17T03:45:13.002Z,3.70
2023-05-17T03:47:44.186Z,4.63
2023-05-17T03:50:12.340Z,4.10
2023-05-17T03:52:41.984Z,3.47
2023-05-17T03:55:10.616Z,3.97
2023-05-17T03:57:39.773Z,3.67
2023-05-17T04:00:10.525Z,4.33
2023-05-17T04:02:38.507Z,3.87
2023-05-17T04:05:06.907Z,4.60
2023-05-17T04:07:34.727Z,4.13
2023-05-17T04:10:02.965Z,4.50
2023-05-17T04:12:30.767Z,4.30
2023-05-17T04:15:00.093Z,4.37
2023-05-17T04:17:27.881Z,4.33
2023-05-17T04:19:55.818Z,4.57
2023-05-17T04:22:23.803Z,4.20
2023-05-17T04:24:51.552Z,4.20
2023-05-17T04:27:19.323Z,4.40
2023-05-17T04:29:47.074Z,4.23
2023-05-17T04:32:16.633Z,4.80
2023-05-17T04:34:44.419Z,4.33
2023-05-17T04:37:12.226Z,4.17
2023-05-17T04:39:40.096Z,4.60
2023-05-17T04:42:09.128Z,4.30
2023-05-17T04:44:36.962Z,4.90
2023-05-17T04:47:04.950Z,4.50
2023-05-17T04:49:34.627Z,4.53
2023-05-17T04:52:04.614Z,5.33
2023-05-17T04:54:33.909Z,4.53
2023-05-17T04:57:01.974Z,4.87
2023-05-17T04:59:29.766Z,5.53
2023-05-17T05:01:57.533Z,5.23
2023-05-17T05:04:28.073Z,4.77
2023-05-17T05:06:57.134Z,4.97
2023-05-17T05:09:25.023Z,4.70
2023-05-17T05:11:52.800Z,5.13
2023-05-17T05:14:20.710Z,4.97
2023-05-17T05:16:48.469Z,4.27
2023-05-17T05:19:16.816Z,4.80
2023-05-17T05:21:45.870Z,5.00
2023-05-17T05:24:14.981Z,5.17
2023-05-17T05:26:42.864Z,4.83
2023-05-17T05:29:10.725Z,5.50
2023-05-17T05:31:38.546Z,4.93
2023-05-17T05:34:06.783Z,4.93
2023-05-17T05:36:34.784Z,5.27
2023-05-17T05:39:02.985Z,5.20
2023-05-17T05:41:32.928Z,4.70
2023-05-17T05:44:00.712Z,5.17
2023-05-17T05:46:28.627Z,5.10
2023-05-17T05:48:56.501Z,5.30
2023-05-17T05:51:24.333Z,8.40
2023-05-17T05:53:52.077Z,5.17
2023-05-17T05:56:19.893Z,5.37
2023-05-17T05:58:49.011Z,4.50
2023-05-17T06:01:16.821Z,5.23
2023-05-17T06:03:44.564Z,4.73
2023-05-17T06:06:12.486Z,4.67
2023-05-17T06:08:40.323Z,4.10
2023-05-17T06:11:08.203Z,3.60
2023-05-17T06:13:35.957Z,3.80
2023-05-17T06:16:05.966Z,4.53
2023-05-17T06:18:34.080Z,4.50
2023-05-17T06:21:01.903Z,4.10
2023-05-17T06:23:29.716Z,4.03
2023-05-17T06:25:57.537Z,3.63
2023-05-17T06:28:26.319Z,3.63
2023-05-17T06:30:54.058Z,3.70
2023-05-17T06:33:23.227Z,3.37
2023-05-17T06:35:56.882Z,3.73
2023-05-17T06:38:25.858Z,3.80
2023-05-17T06:40:54.959Z,3.40
2023-05-17T06:43:23.005Z,4.43
2023-05-17T06:45:51.224Z,3.53
2023-05-17T06:48:19.198Z,3.63
2023-05-17T06:50:48.580Z,3.10
2023-05-17T06:53:16.427Z,3.87
2023-05-17T06:55:44.315Z,3.70
2023-05-17T06:58:12.240Z,3.53
2023-05-17T07:00:40.083Z,3.60
2023-05-17T07:03:08.153Z,3.73
2023-05-17T07:05:36.606Z,3.10
2023-05-17T07:08:06.941Z,3.57
2023-05-17T07:10:34.860Z,3.87
2023-05-17T07:13:02.860Z,3.30
2023-05-17T07:15:30.843Z,3.20
2023-05-17T07:17:59.600Z,3.70
2023-05-17T07:20:27.667Z,3.53
2023-05-17T07:22:56.266Z,3.20
2023-05-17T07:25:25.403Z,3.13
2023-05-17T07:27:53.407Z,2.70
2023-05-17T07:30:21.307Z,3.37
2023-05-17T07:32:49.114Z,3.37
2023-05-17T07:35:21.659Z,3.47
2023-05-17T07:37:49.816Z,3.13
2023-05-17T07:40:17.952Z,2.80
2023-05-17T07:42:47.046Z,3.20
2023-05-17T07:45:14.995Z,3.43
2023-05-17T07:47:42.947Z,3.57
2023-05-17T07:50:12.007Z,3.07
2023-05-17T07:52:39.826Z,3.20
2023-05-17T07:55:08.865Z,3.40
2023-05-17T07:57:37.000Z,2.53
2023-05-17T08:00:12.839Z,3.10
2023-05-17T08:02:41.141Z,2.83
2023-05-17T08:05:09.963Z,3.23
2023-05-17T08:07:37.866Z,2.87
2023-05-17T08:10:06.327Z,2.60
2023-05-17T08:12:34.205Z,2.87
2023-05-17T08:15:02.029Z,3.05
2023-05-17T08:17:31.474Z,2.57
2023-05-17T08:19:59.381Z,3.00
2023-05-17T08:22:27.447Z,2.80
2023-05-17T08:24:55.170Z,2.92
2023-05-17T08:27:22.901Z,2.65
2023-05-17T08:29:51.867Z,2.30
2023-05-17T08:32:19.599Z,2.72
2023-05-17T08:34:48.863Z,2.75
2023-05-17T08:37:19.531Z,2.10
2023-05-17T08:39:48.130Z,2.15
2023-05-17T08:42:19.493Z,2.92
2023-05-17T08:44:47.387Z,2.53
2023-05-17T08:47:25.631Z,2.47
2023-05-17T08:50:00.920Z,2.88
2023-05-17T08:52:32.144Z,2.45
2023-05-17T08:55:01.000Z,2.80
2023-05-17T08:57:31.270Z,2.30
2023-05-17T09:00:00.349Z,2.63
2023-05-17T09:02:31.063Z,1.95
2023-05-17T09:05:01.169Z,2.58
2023-05-17T09:07:29.000Z,2.20
2023-05-17T09:09:56.818Z,2.80
2023-05-17T09:12:25.729Z,2.47
2023-05-17T09:14:53.704Z,2.38
2023-05-17T09:17:22.521Z,2.22
2023-05-17T09:19:51.871Z,2.72
2023-05-17T09:22:21.519Z,2.25
2023-05-17T09:24:50.492Z,2.20
2023-05-17T09:27:19.234Z,2.63
2023-05-17T09:29:47.944Z,2.30
2023-05-17T09:32:17.353Z,2.53
2023-05-17T09:34:48.272Z,2.50
2023-05-17T09:37:17.667Z,2.20
2023-05-17T09:39:48.489Z,2.60
2023-05-17T09:42:17.283Z,2.25
2023-05-17T09:44:49.487Z,2.60
2023-05-17T09:47:25.066Z,2.03
2023-05-17T09:49:53.146Z,2.70
2023-05-17T09:52:21.870Z,2.53
2023-05-17T09:54:55.296Z,2.33
2023-05-17T09:57:24.234Z,2.22
2023-05-17T09:59:55.941Z,2.33
2023-05-17T10:02:27.648Z,2.80
2023-05-17T10:04:58.276Z,2.40
2023-05-17T10:07:27.852Z,2.47
2023-05-17T10:09:57.485Z,2.08
2023-05-17T10:12:29.451Z,2.40
2023-05-17T10:14:59.939Z,2.17
2023-05-17T10:17:30.097Z,2.40
2023-05-17T10:19:59.350Z,2.30
2023-05-17T10:22:29.167Z,2.35
2023-05-17T10:24:58.998Z,2.03
2023-05-17T10:27:28.001Z,2.20
2023-05-17T10:29:56.502Z,2.30
2023-05-17T10:32:27.385Z,2.30
2023-05-17T10:35:09.591Z,2.28
2023-05-17T10:37:40.068Z,2.40
2023-05-17T10:40:13.368Z,2.30
2023-05-17T10:42:43.471Z,2.40
2023-05-17T10:45:13.188Z,2.30
2023-05-17T10:47:42.566Z,2.25
2023-05-17T10:50:13.052Z,2.40
2023-05-17T10:52:48.175Z,2.63
2023-05-17T10:55:21.498Z,2.40
2023-05-17T10:58:15.995Z,2.20
2023-05-17T11:00:45.972Z,2.17
2023-05-17T11:03:16.768Z,2.25
2023-05-17T11:05:46.909Z,2.67
2023-05-17T11:08:17.278Z,2.80
2023-05-17T11:11:11.502Z,2.42
2023-05-17T11:13:47.247Z,1.83
2023-05-17T11:16:18.325Z,2.30
2023-05-17T11:18:50.989Z,2.42
2023-05-17T11:21:19.627Z,2.70
2023-05-17T11:23:48.937Z,2.08
2023-05-17T11:26:23.120Z,2.42
2023-05-17T11:29:00.126Z,2.30
2023-05-17T11:31:32.117Z,2.38
2023-05-17T11:34:00.655Z,2.30
2023-05-17T11:36:28.505Z,2.42
2023-05-17T11:39:12.547Z,2.42
2023-05-17T11:41:48.872Z,2.03
2023-05-17T11:44:19.250Z,2.53
2023-05-17T11:46:47.166Z,2.55
2023-05-17T11:49:26.868Z,2.15
2023-05-17T11:52:01.745Z,2.42
2023-05-17T11:54:31.278Z,2.45
2023-05-17T11:57:02.860Z,3.17
2023-05-17T11:59:30.960Z,2.78
2023-05-17T12:01:58.733Z,3.15
2023-05-17T12:04:28.412Z,2.58
2023-05-17T12:06:57.893Z,2.10
2023-05-17T12:09:26.575Z,2.40
2023-05-17T12:11:55.633Z,2.65
2023-05-17T12:14:25.431Z,2.05
2023-05-17T12:16:56.266Z,2.00
2023-05-17T12:19:27.244Z,2.38
2023-05-17T12:21:55.088Z,2.40
2023-05-17T12:24:22.962Z,2.10
2023-05-17T12:26:50.831Z,2.55
2023-05-17T12:29:23.136Z,2.90
2023-05-17T12:31:54.008Z,2.30
2023-05-17T12:34:22.966Z,2.25
2023-05-17T12:36:52.851Z,2.60
2023-05-17T12:39:23.887Z,2.22
2023-05-17T12:41:52.956Z,2.55
2023-05-17T12:44:21.676Z,2.85
2023-05-17T12:46:53.733Z,2.55
2023-05-17T12:49:23.265Z,2.25
2023-05-17T12:51:51.485Z,2.40
2023-05-17T12:54:28.450Z,2.13
2023-05-17T12:56:56.677Z,2.60
2023-05-17T12:59:25.959Z,2.33
2023-05-17T13:01:56.484Z,2.22
2023-05-17T13:04:32.802Z,2.53
2023-05-17T13:07:02.470Z,2.63
2023-05-17T13:09:32.025Z,2.10
2023-05-17T13:12:01.119Z,2.35
2023-05-17T13:14:40.283Z,2.80
2023-05-17T13:17:10.654Z,2.00
2023-05-17T13:19:40.406Z,2.28
2023-05-17T13:22:09.254Z,3.03
2023-05-17T13:24:39.696Z,2.22
2023-05-17T13:27:08.324Z,2.63
2023-05-17T13:29:40.493Z,2.30
2023-05-17T13:32:09.927Z,2.30
2023-05-17T13:34:39.274Z,2.60
2023-05-17T13:37:11.203Z,2.72
2023-05-17T13:39:40.527Z,2.25
2023-05-17T13:42:08.463Z,2.63
2023-05-17T13:44:38.234Z,2.40
2023-05-17T13:47:06.720Z,2.28
2023-05-17T13:49:34.554Z,2.42
2023-05-17T13:52:08.396Z,2.40
2023-05-17T13:54:36.266Z,2.22
2023-05-17T13:57:04.237Z,2.55
2023-05-17T13:59:32.102Z,2.30
2023-05-17T14:02:00.016Z,2.50
2023-05-17T14:04:27.843Z,1.90
2023-05-17T14:06:55.593Z,2.55
2023-05-17T14:09:24.846Z,2.08
2023-05-17T14:11:52.779Z,2.70
2023-05-17T14:14:20.574Z,2.30
2023-05-17T14:16:48.367Z,2.17
2023-05-17T14:19:16.243Z,2.53
2023-05-17T14:21:44.110Z,2.40
2023-05-17T14:24:12.055Z,2.50
2023-05-17T14:26:41.870Z,2.30
2023-05-17T14:29:09.778Z,1.95
2023-05-17T14:31:37.592Z,2.38
2023-05-17T14:34:05.497Z,2.55
2023-05-17T14:36:35.660Z,2.20
2023-05-17T14:39:03.828Z,2.47
2023-05-17T14:41:31.774Z,2.25
2023-05-17T14:44:01.266Z,2.40
2023-05-17T14:46:29.252Z,1.98
2023-05-17T14:48:57.407Z,2.13
2023-05-17T14:51:25.385Z,2.42
2023-05-17T14:53:54.265Z,2.47
2023-05-17T14:56:22.653Z,2.35
2023-05-17T14:58:51.177Z,2.30
2023-05-17T15:01:21.000Z,1.95
2023-05-17T15:03:49.003Z,2.35
2023-05-17T15:06:17.268Z,2.30
2023-05-17T15:08:45.040Z,3.00
2023-05-17T15:11:13.140Z,2.63
2023-05-17T15:13:40.877Z,2.63
2023-05-17T15:16:09.368Z,2.25
2023-05-17T15:18:38.885Z,2.67
2023-05-17T15:21:06.860Z,2.17
2023-05-17T15:23:34.683Z,2.35
2023-05-17T15:26:02.576Z,2.13
2023-05-17T15:28:30.644Z,2.55
2023-05-17T15:31:02.384Z,2.10
2023-05-17T15:33:31.111Z,1.92
2023-05-17T15:36:00.289Z,2.47
2023-05-17T15:38:28.133Z,2.40
2023-05-17T15:41:04.203Z,2.58
2023-05-17T15:43:32.738Z,2.30
2023-05-17T15:46:00.868Z,2.20
2023-05-17T15:48:29.500Z,2.20
2023-05-17T15:50:58.013Z,2.58
2023-05-17T15:53:28.456Z,2.45
2023-05-17T15:55:56.582Z,2.33
2023-05-17T15:58:27.832Z,2.80
2023-05-17T16:00:55.976Z,2.75
2023-05-17T16:03:23.705Z,2.25
2023-05-17T16:05:51.700Z,2.78
2023-05-17T16:08:20.331Z,2.75
2023-05-17T16:10:49.495Z,2.70
2023-05-17T16:13:17.689Z,2.38
2023-05-17T16:15:45.485Z,2.85
2023-05-17T16:18:15.149Z,2.78
2023-05-17T16:20:43.721Z,2.60
2023-05-17T16:23:12.711Z,2.22
2023-05-17T16:25:41.585Z,2.28
2023-05-17T16:28:10.810Z,2.50
2023-05-17T16:30:38.689Z,2.25
2023-05-17T16:33:08.420Z,2.60
2023-05-17T16:35:36.610Z,2.45
2023-05-17T16:38:04.428Z,2.40
2023-05-17T16:40:32.472Z,2.30
2023-05-17T16:43:00.688Z,2.35
2023-05-17T16:45:30.158Z,2.58
2023-05-17T16:47:58.244Z,2.30
2023-05-17T16:50:26.100Z,2.70
2023-05-17T16:52:53.946Z,3.63
2023-05-17T16:55:21.871Z,2.50
2023-05-17T16:57:49.778Z,2.20
2023-05-17T17:00:18.650Z,2.65
2023-05-17T17:02:47.932Z,2.00
2023-05-17T17:05:16.033Z,2.13
2023-05-17T17:08:00.272Z,2.75
2023-05-17T17:13:57.833Z,2.47
2023-05-17T17:16:26.401Z,2.60
2023-05-17T17:18:56.416Z,2.47
2023-05-17T17:21:27.074Z,2.30
2023-05-17T17:23:59.603Z,2.28
2023-05-17T17:26:27.690Z,2.40
2023-05-17T17:28:56.791Z,2.60
2023-05-17T17:31:24.635Z,2.58
2023-05-17T17:33:52.867Z,2.20
2023-05-17T17:36:24.164Z,2.38
2023-05-17T17:38:52.240Z,2.08
2023-05-17T17:41:21.271Z,2.13
2023-05-17T17:43:49.626Z,2.25
2023-05-17T17:46:17.805Z,2.30
2023-05-17T17:48:45.770Z,2.08
2023-05-17T17:51:13.650Z,2.15
2023-05-17T17:53:42.886Z,2.72
2023-05-17T17:56:10.854Z,2.20
2023-05-17T17:58:38.944Z,2.10
2023-05-17T18:01:06.956Z,2.40
2023-05-17T18:03:35.204Z,2.30
2023-05-17T18:06:04.658Z,2.42
2023-05-17T18:08:32.503Z,2.70
2023-05-17T18:11:02.380Z,2.30
2023-05-17T18:13:30.382Z,2.28
2023-05-17T18:15:58.366Z,2.47
2023-05-17T18:18:26.275Z,2.50
2023-05-17T18:20:54.238Z,2.80
2023-05-17T18:23:22.216Z,2.47
2023-05-17T18:25:50.769Z,2.20
2023-05-17T18:28:26.846Z,2.55
2023-05-17T18:31:06.265Z,2.05
2023-05-17T18:33:34.893Z,2.60
2023-05-17T18:36:02.760Z,2.03
2023-05-17T18:38:30.773Z,2.15
2023-05-17T18:40:58.628Z,2.47
2023-05-17T18:43:30.515Z,2.10
2023-05-17T18:45:58.419Z,2.47
2023-05-17T18:48:27.745Z,2.45
2023-05-17T18:50:57.577Z,2.40
2023-05-17T18:53:26.409Z,2.38
2023-05-17T18:55:54.272Z,2.25
2023-05-17T18:58:22.120Z,2.08
2023-05-17T19:00:51.303Z,2.70
2023-05-17T19:03:19.414Z,2.03
2023-05-17T19:05:47.663Z,2.40
2023-05-17T19:08:15.760Z,2.10
2023-05-17T19:10:43.695Z,2.65
2023-05-17T19:13:12.877Z,2.55
2023-05-17T19:15:41.799Z,2.80
2023-05-17T19:18:11.266Z,2.10
2023-05-17T19:20:39.391Z,2.35
2023-05-17T19:23:10.300Z,2.33
2023-05-17T19:25:38.143Z,2.08
2023-05-17T19:28:06.593Z,2.63
2023-05-17T19:30:35.038Z,1.87
2023-05-17T19:33:03.870Z,2.05
2023-05-17T19:35:33.310Z,2.67
2023-05-17T19:38:01.387Z,1.90
2023-05-17T19:40:29.712Z,2.25
2023-05-17T19:42:57.684Z,2.47
2023-05-17T19:45:25.966Z,2.20
2023-05-17T19:48:01.450Z,2.17
2023-05-17T19:50:29.958Z,2.33
2023-05-17T19:52:59.443Z,2.90
2023-05-17T19:55:29.994Z,2.30
2023-05-17T19:57:58.133Z,2.83
2023-05-17T20:00:26.178Z,2.70
2023-05-17T20:02:54.436Z,2.67
2023-05-17T20:05:22.735Z,2.00
2023-05-17T20:07:50.871Z,2.67
2023-05-17T20:10:20.572Z,2.17
2023-05-17T20:12:48.418Z,2.10
2023-05-17T20:15:16.245Z,2.10
2023-05-17T20:17:44.130Z,2.40
2023-05-17T20:20:12.438Z,2.50
2023-05-17T20:22:41.441Z,3.07
2023-05-17T20:25:09.443Z,2.60
2023-05-17T20:27:38.634Z,2.30
2023-05-17T20:30:08.657Z,2.80
2023-05-17T20:32:36.717Z,2.60
2023-05-17T20:35:04.738Z,2.57
2023-05-17T20:37:32.687Z,2.87
2023-05-17T20:40:04.770Z,2.90
2023-05-17T20:42:32.892Z,2.77
2023-05-17T20:45:03.709Z,3.03
2023-05-17T20:47:33.922Z,2.60
2023-05-17T20:50:01.808Z,2.70
2023-05-17T20:52:38.973Z,2.90
2023-05-17T20:55:09.074Z,4.13
2023-05-17T20:57:36.905Z,4.70
2023-05-17T21:00:08.809Z,4.97
2023-05-17T21:02:36.842Z,5.33
2023-05-17T21:05:04.854Z,4.90
2023-05-17T21:07:33.015Z,4.50
2023-05-17T21:10:00.856Z,4.80
2023-05-17T21:12:28.703Z,4.40
2023-05-17T21:15:14.461Z,4.53
2023-05-17T21:18:12.883Z,4.37
2023-05-17T21:20:40.989Z,4.77
2023-05-17T21:23:08.948Z,4.70
2023-05-17T21:25:37.815Z,5.40
2023-05-17T21:28:12.900Z,4.80
2023-05-17T21:30:40.991Z,4.23
2023-05-17T21:33:12.101Z,4.30
2023-05-17T21:35:40.020Z,4.03
2023-05-17T21:38:08.136Z,4.40
2023-05-17T21:40:36.250Z,4.10
2023-05-17T21:43:06.815Z,4.30
2023-05-17T21:45:34.845Z,4.50
2023-05-17T21:48:02.789Z,4.17
2023-05-17T21:50:32.487Z,4.20
2023-05-17T21:53:00.505Z,3.40
2023-05-17T21:55:32.393Z,3.87
2023-05-17T21:58:16.242Z,3.50
2023-05-17T22:00:44.138Z,3.17
2023-05-17T22:03:12.070Z,3.13
2023-05-17T22:05:41.526Z,3.43
2023-05-17T22:08:09.397Z,3.47
2023-05-17T22:10:37.242Z,3.60
2023-05-17T22:13:06.150Z,3.30
2023-05-17T22:15:34.291Z,3.57
2023-05-17T22:18:03.558Z,3.23
2023-05-17T22:20:33.632Z,3.33
2023-05-17T22:23:03.294Z,3.70
2023-05-17T22:25:31.541Z,3.27
2023-05-17T22:27:59.420Z,3.20
2023-05-17T22:30:27.244Z,3.57
2023-05-17T22:32:57.283Z,3.57
2023-05-17T22:35:25.370Z,3.10
2023-05-17T22:37:53.522Z,3.83
2023-05-17T22:40:22.926Z,3.03
2023-05-17T22:42:51.938Z,3.10
2023-05-17T22:45:19.881Z,3.70
2023-05-17T22:47:47.791Z,2.93
2023-05-17T22:50:15.826Z,3.30
2023-05-17T22:52:46.431Z,2.90
2023-05-17T22:55:14.293Z,3.03
2023-05-17T22:57:43.466Z,3.00
2023-05-17T23:00:12.259Z,3.10
2023-05-17T23:02:40.174Z,2.93
2023-05-17T23:11:51.217Z,2.60
2023-05-17T23:24:38.630Z,3.37
2023-05-17T23:27:10.318Z,3.23
2023-05-17T23:29:41.531Z,3.83
2023-05-17T23:32:09.404Z,3.17
2023-05-17T23:34:37.476Z,3.73
2023-05-17T23:37:06.669Z,2.97
2023-05-17T23:39:34.524Z,3.30
2023-05-17T23:42:02.296Z,3.43
2023-05-17T23:44:30.592Z,3.50
2023-05-17T23:46:59.918Z,3.10
2023-05-17T23:49:27.690Z,2.80
2023-05-17T23:51:55.471Z,3.13
2023-05-17T23:54:24.732Z,3.00
2023-05-17T23:56:52.467Z,3.33
2023-05-17T23:59:20.905Z,2.90
